Time;durP1;ratioP1;P1;durP2;ratioP2;P2;SDS_P1;SDS_P2;PMS_P1;PMS_P2;Temp;Humidity;BMP_temperature;BMP_pressure;BME280_temperature;BME280_humidity;BME280_pressure;Samples;Min_cycle;Max_cycle;Signal;HPM_P1;HPM_P2
2022/11/09 00:00:47;;;;;;;41.70;22.20;;;;;;;4.16;93.47;98549.48;102834;1310;138262;-73
2022/11/09 00:03:13;;;;;;;42.20;22.50;;;;;;;4.14;93.68;98552.26;103054;1302;23198;-72
2022/11/09 00:05:40;;;;;;;39.00;21.20;;;;;;;4.12;93.82;98551.04;102912;1313;137676;-72
2022/11/09 00:08:08;;;;;;;41.20;22.40;;;;;;;4.12;93.84;98554.48;102873;1313;139128;-72
2022/11/09 00:10:35;;;;;;;39.90;22.20;;;;;;;4.11;93.97;98553.00;103067;1313;22489;-72
2022/11/09 00:13:01;;;;;;;41.70;22.80;;;;;;;4.11;94.03;98552.66;102847;1306;137935;-73
2022/11/09 00:15:28;;;;;;;39.30;22.30;;;;;;;4.11;94.02;98550.34;103198;1304;22489;-72
2022/11/09 00:17:54;;;;;;;37.40;20.90;;;;;;;4.11;94.16;98550.80;102927;1307;138471;-72
2022/11/09 00:20:20;;;;;;;44.40;22.30;;;;;;;4.12;94.33;98549.51;103062;1304;138113;-73
2022/11/09 00:22:48;;;;;;;38.80;21.70;;;;;;;4.12;94.20;98553.77;102936;1292;138200;-72
2022/11/09 00:25:15;;;;;;;40.10;23.00;;;;;;;4.10;93.88;98553.11;102870;1311;138195;-71
2022/11/09 00:27:41;;;;;;;36.00;22.10;;;;;;;4.04;93.31;98551.42;103031;1304;23924;-73
2022/11/09 00:30:11;;;;;;;40.40;21.30;;;;;;;3.99;93.42;98551.73;102591;1308;137873;-71
2022/11/09 00:32:38;;;;;;;41.90;21.30;;;;;;;3.96;93.58;98554.91;102829;1313;138031;-71
2022/11/09 00:35:06;;;;;;;41.50;22.00;;;;;;;3.94;93.65;98552.77;102996;1309;138049;-71
2022/11/09 00:37:34;;;;;;;39.30;21.70;;;;;;;3.92;93.86;98552.98;103010;1310;138640;-72
2022/11/09 00:40:00;;;;;;;41.90;22.00;;;;;;;3.92;94.07;98557.67;103070;1301;24363;-72
2022/11/09 00:42:26;;;;;;;35.30;20.60;;;;;;;3.90;94.06;98557.16;102947;1310;138086;-72
2022/11/09 00:44:53;;;;;;;40.80;20.90;;;;;;;3.90;94.14;98556.13;102997;1305;137970;-72
2022/11/09 00:47:19;;;;;;;37.30;20.20;;;;;;;3.88;94.18;98559.21;102755;1305;138103;-72
2022/11/09 00:49:48;;;;;;;36.40;20.20;;;;;;;3.88;94.17;98560.09;102853;1289;138029;-72
2022/11/09 00:52:14;;;;;;;34.40;20.10;;;;;;;3.87;94.04;98559.88;103011;1313;22563;-72
2022/11/09 00:54:40;;;;;;;38.70;21.60;;;;;;;3.87;94.26;98558.73;102977;1310;137803;-72
2022/11/09 00:57:07;;;;;;;35.20;19.60;;;;;;;3.85;94.04;98560.33;102258;1313;1076269;-72
2022/11/09 00:59:33;;;;;;;35.80;21.00;;;;;;;3.84;93.91;98558.52;102858;1310;138144;-73
2022/11/09 01:01:59;;;;;;;36.00;20.20;;;;;;;3.82;93.98;98556.83;102862;1310;137869;-72
2022/11/09 01:04:25;;;;;;;38.60;20.30;;;;;;;3.79;93.99;98557.23;102983;1313;22536;-72
2022/11/09 01:06:52;;;;;;;35.50;19.90;;;;;;;3.78;94.16;98553.20;102745;1289;138167;-72
2022/11/09 01:09:18;;;;;;;34.60;19.00;;;;;;;3.77;94.09;98552.81;102933;1312;22466;-72
2022/11/09 01:11:44;;;;;;;33.00;18.80;;;;;;;3.75;94.03;98552.45;102963;1301;138015;-72
2022/11/09 01:14:12;;;;;;;34.80;18.70;;;;;;;3.75;94.21;98551.36;102867;1289;149976;-72
2022/11/09 01:16:38;;;;;;;36.90;18.10;;;;;;;3.76;94.42;98550.25;102943;1310;138130;-77
2022/11/09 01:19:04;;;;;;;34.20;19.20;;;;;;;3.75;94.38;98548.38;102939;1310;138287;-70
2022/11/09 01:21:30;;;;;;;33.90;18.90;;;;;;;3.72;93.81;98548.53;103160;1300;25480;-71
2022/11/09 01:24:00;;;;;;;33.90;18.20;;;;;;;3.70;93.93;98546.91;102986;1306;137724;-71
2022/11/09 01:26:27;;;;;;;33.20;17.40;;;;;;;3.66;93.38;98543.27;103085;1298;138291;-71
2022/11/09 01:28:53;;;;;;;32.20;19.60;;;;;;;3.59;92.76;98544.85;103760;1313;137993;-71
2022/11/09 01:31:21;;;;;;;32.70;18.70;;;;;;;3.53;92.66;98546.50;104610;1311;138077;-73
2022/11/09 01:33:47;;;;;;;32.70;18.00;;;;;;;3.48;92.50;98543.20;102876;1312;22488;-72
2022/11/09 01:36:17;;;;;;;30.10;16.00;;;;;;;3.44;92.53;98537.51;102858;1310;137941;-72
2022/11/09 01:38:44;;;;;;;28.30;16.50;;;;;;;3.40;92.63;98535.25;103049;1295;137895;-73
2022/11/09 01:41:17;;;;;;;30.20;16.40;;;;;;;3.37;92.97;98532.77;103006;1304;138364;-72
2022/11/09 01:43:45;;;;;;;35.50;19.10;;;;;;;3.35;92.94;98535.20;102881;1303;137911;-73
2022/11/09 01:46:29;;;;;;;32.90;19.20;;;;;;;3.33;93.32;98536.52;102894;1310;23331;-72
2022/11/09 01:49:00;;;;;;;36.00;19.90;;;;;;;3.33;93.54;98536.56;102667;1313;138103;-73
2022/11/09 01:51:38;;;;;;;32.70;19.40;;;;;;;3.31;93.61;98539.66;102890;1313;22501;-72
2022/11/09 01:54:27;;;;;;;32.40;17.80;;;;;;;3.29;93.65;98536.08;102825;1311;137750;-71
2022/11/09 01:57:02;;;;;;;33.10;18.50;;;;;;;3.21;92.51;98532.84;103136;1310;138171;-73
2022/11/09 01:59:32;;;;;;;34.90;18.60;;;;;;;3.12;92.46;98528.71;102772;1310;137845;-72
2022/11/09 02:02:00;;;;;;;31.70;18.00;;;;;;;3.07;92.75;98526.85;102880;1310;138192;-73
2022/11/09 02:04:42;;;;;;;35.00;18.20;;;;;;;3.05;92.77;98528.39;103026;1310;25226;-71
2022/11/09 02:07:10;;;;;;;30.00;18.20;;;;;;;3.03;93.14;98525.41;102835;1303;138008;-72
2022/11/09 02:09:48;;;;;;;35.70;19.20;;;;;;;3.02;93.65;98526.85;102853;1298;22482;-72
2022/11/09 02:12:17;;;;;;;41.90;18.90;;;;;;;2.99;93.46;98526.11;102672;1308;137759;-72
2022/11/09 02:14:48;;;;;;;38.20;18.50;;;;;;;2.94;93.20;98522.98;102860;1305;137945;-72
2022/11/09 02:17:16;;;;;;;39.80;20.00;;;;;;;2.88;93.28;98523.80;102730;1306;138176;-71
2022/11/09 02:19:43;;;;;;;40.50;21.40;;;;;;;2.87;94.06;98525.15;102843;1301;137907;-74
2022/11/09 02:22:10;;;;;;;41.20;22.40;;;;;;;2.89;94.59;98527.61;102924;1310;22490;-73
2022/11/09 02:24:36;;;;;;;41.40;23.10;;;;;;;2.91;94.94;98522.63;102837;1288;137867;-73
2022/11/09 02:27:05;;;;;;;42.40;23.20;;;;;;;2.94;95.12;98524.47;102860;1302;137904;-71
2022/11/09 02:29:36;;;;;;;42.30;23.60;;;;;;;2.95;95.44;98522.45;102879;1295;137883;-74
2022/11/09 02:32:07;;;;;;;41.20;22.30;;;;;;;2.97;95.70;98522.88;102771;1289;139510;-71
2022/11/09 02:34:34;;;;;;;42.10;23.30;;;;;;;2.99;95.48;98517.11;102948;1304;22470;-71
2022/11/09 02:37:01;;;;;;;42.50;23.50;;;;;;;3.01;95.59;98518.11;102571;1306;139505;-74
2022/11/09 02:39:27;;;;;;;39.20;23.00;;;;;;;3.04;95.58;98515.32;102920;1302;24344;-71
2022/11/09 02:42:11;;;;;;;42.60;22.70;;;;;;;3.00;95.18;98512.84;102791;1292;137814;-72
2022/11/09 02:44:42;;;;;;;53.90;24.90;;;;;;;2.96;95.05;98509.95;102916;1295;137927;-73
2022/11/09 02:47:08;;;;;;;51.30;24.40;;;;;;;2.96;95.51;98509.17;102823;1310;138138;-73
2022/11/09 02:49:35;;;;;;;50.60;25.10;;;;;;;2.96;96.02;98513.02;102807;1306;138025;-71
2022/11/09 02:52:01;;;;;;;50.00;25.40;;;;;;;2.98;96.22;98516.55;102898;1291;22469;-71
2022/11/09 02:54:27;;;;;;;46.90;24.50;;;;;;;2.99;96.21;98512.77;102823;1312;137865;-72
2022/11/09 02:56:54;;;;;;;39.60;22.70;;;;;;;3.01;96.21;98513.98;102804;1313;137902;-71
2022/11/09 02:59:24;;;;;;;40.60;22.10;;;;;;;3.02;96.07;98511.91;102791;1312;137888;-72
2022/11/09 03:01:51;;;;;;;45.30;22.90;;;;;;;3.03;96.37;98510.67;102827;1310;138051;-71
2022/11/09 03:04:18;;;;;;;41.40;22.60;;;;;;;3.05;96.55;98508.01;103082;1305;24348;-74
2022/11/09 03:06:44;;;;;;;40.90;22.30;;;;;;;3.06;96.55;98511.98;103042;1310;137954;-72
2022/11/09 03:09:14;;;;;;;44.00;23.80;;;;;;;3.07;96.57;98507.15;103044;1299;22468;-74
2022/11/09 03:11:42;;;;;;;50.60;23.70;;;;;;;3.08;96.64;98503.27;102758;1312;137959;-71
2022/11/09 03:14:10;;;;;;;42.20;22.90;;;;;;;3.10;96.88;98506.63;102993;1313;137910;-72
2022/11/09 03:16:39;;;;;;;42.80;24.10;;;;;;;3.10;96.81;98506.43;103047;1313;22512;-72
2022/11/09 03:19:06;;;;;;;42.10;22.70;;;;;;;3.11;96.82;98510.08;102808;1310;137885;-71
2022/11/09 03:21:32;;;;;;;40.90;22.10;;;;;;;3.11;96.63;98507.67;103002;1310;25310;-72
2022/11/09 03:24:01;;;;;;;36.20;20.90;;;;;;;3.10;96.28;98502.13;103032;1311;137762;-71
2022/11/09 03:26:27;;;;;;;41.00;22.10;;;;;;;3.08;95.96;98502.77;102932;1310;138054;-72
2022/11/09 03:28:54;;;;;;;50.40;24.70;;;;;;;3.07;96.14;98505.91;103015;1310;139001;-72
2022/11/09 03:31:22;;;;;;;45.20;24.10;;;;;;;3.08;96.57;98504.80;102923;1312;138143;-72
2022/11/09 03:33:49;;;;;;;42.40;23.70;;;;;;;3.10;96.97;98507.91;102988;1313;24280;-72
2022/11/09 03:36:15;;;;;;;46.40;25.50;;;;;;;3.11;97.15;98504.82;102878;1313;137804;-72
2022/11/09 03:38:41;;;;;;;38.90;23.90;;;;;;;3.13;96.84;98507.52;102932;1302;138432;-72
2022/11/09 03:41:08;;;;;;;42.30;23.20;;;;;;;3.13;96.77;98507.48;102910;1310;137992;-72
2022/11/09 03:43:35;;;;;;;42.20;20.10;;;;;;;3.12;96.64;98510.25;102902;1305;137971;-72
2022/11/09 03:46:02;;;;;;;30.30;17.20;;;;;;;3.07;95.19;98511.11;102966;1297;25325;-72
2022/11/09 03:48:28;;;;;;;29.80;16.00;;;;;;;2.95;93.70;98515.48;102875;1310;137602;-72
2022/11/09 03:50:55;;;;;;;26.50;16.00;;;;;;;2.84;93.51;98519.00;102938;1299;138164;-72
2022/11/09 03:53:21;;;;;;;32.00;16.70;;;;;;;2.77;93.84;98518.48;102998;1313;138194;-71
2022/11/09 03:55:47;;;;;;;31.30;16.00;;;;;;;2.71;93.86;98521.54;103015;1313;138003;-72
2022/11/09 03:58:13;;;;;;;30.00;16.50;;;;;;;2.62;93.18;98518.48;103050;1312;22589;-71
2022/11/09 04:00:40;;;;;;;29.20;17.80;;;;;;;2.54;93.18;98520.05;102967;1300;137636;-71
2022/11/09 04:03:06;;;;;;;34.30;20.20;;;;;;;2.50;93.62;98518.84;102952;1310;137775;-72
2022/11/09 04:05:32;;;;;;;37.10;20.90;;;;;;;2.48;94.05;98517.48;102851;1304;137839;-72
2022/11/09 04:07:59;;;;;;;39.30;21.50;;;;;;;2.47;94.57;98517.38;102948;1310;138093;-71
2022/11/09 04:10:26;;;;;;;42.70;21.40;;;;;;;2.45;94.46;98522.74;103078;1300;24420;-71
2022/11/09 04:12:53;;;;;;;36.80;21.40;;;;;;;2.46;94.71;98520.75;102766;1313;138020;-71
2022/11/09 04:15:21;;;;;;;36.70;21.30;;;;;;;2.46;94.96;98516.62;103119;1288;22467;-72
2022/11/09 04:17:55;;;;;;;40.60;21.30;;;;;;;2.45;95.03;98510.29;102880;1311;137670;-72
2022/11/09 04:20:22;;;;;;;45.90;23.30;;;;;;;2.46;95.30;98507.25;102974;1310;138099;-73
2022/11/09 04:23:02;;;;;;;46.10;24.10;;;;;;;2.49;95.59;98507.72;102963;1310;138408;-73
2022/11/09 04:25:32;;;;;;;46.10;23.30;;;;;;;2.51;95.76;98501.40;102932;1310;138049;-72
2022/11/09 04:27:58;;;;;;;;;;;;;;;2.52;96.03;98502.42;103091;1302;22440;-71
2022/11/09 04:30:29;;;;;;;48.90;26.20;;;;;;;2.53;96.07;98504.27;102913;1310;124071;-71
2022/11/09 04:32:57;;;;;;;46.40;25.30;;;;;;;2.55;96.37;98496.52;103084;1313;138258;-71
2022/11/09 04:35:25;;;;;;;49.00;26.00;;;;;;;2.57;96.41;98498.73;103095;1304;138247;-73
2022/11/09 04:37:55;;;;;;;50.20;26.40;;;;;;;2.59;96.73;98499.83;102933;1313;138268;-71
2022/11/09 04:40:23;;;;;;;51.40;27.50;;;;;;;2.60;96.93;98493.23;103007;1303;22588;-71
2022/11/09 04:42:49;;;;;;;47.20;26.10;;;;;;;2.62;96.99;98495.94;103074;1310;138161;-73
2022/11/09 04:45:16;;;;;;;50.40;27.20;;;;;;;2.64;96.74;98494.89;102956;1310;137941;-73
2022/11/09 04:47:42;;;;;;;47.40;27.30;;;;;;;2.64;96.90;98493.60;102965;1294;138222;-72
2022/11/09 04:50:09;;;;;;;48.80;26.70;;;;;;;2.65;96.93;98493.10;102822;1310;140180;-72
2022/11/09 04:52:35;;;;;;;59.90;30.60;;;;;;;2.66;96.94;98496.97;103052;1312;22462;-71
2022/11/09 04:55:01;;;;;;;48.60;27.30;;;;;;;2.67;96.85;98496.63;102796;1312;138438;-74
2022/11/09 04:57:27;;;;;;;48.70;26.90;;;;;;;2.67;97.01;98496.77;102983;1312;22464;-71
2022/11/09 04:59:54;;;;;;;51.80;28.60;;;;;;;2.69;96.94;98499.41;102751;1306;138028;-71
2022/11/09 05:02:22;;;;;;;54.40;27.20;;;;;;;2.69;97.09;98499.79;102882;1310;138090;-72
2022/11/09 05:04:50;;;;;;;48.50;28.00;;;;;;;2.69;96.85;98490.98;103015;1305;138247;-71
2022/11/09 05:07:16;;;;;;;47.90;26.20;;;;;;;2.69;96.83;98490.11;103015;1310;138355;-71
2022/11/09 05:09:43;;;;;;;42.10;24.50;;;;;;;2.68;96.84;98483.91;103056;1291;22465;-72
2022/11/09 05:12:10;;;;;;;44.50;24.30;;;;;;;2.70;96.97;98488.43;103252;1298;139624;-72
2022/11/09 05:14:36;;;;;;;48.60;24.30;;;;;;;2.71;97.23;98491.50;102858;1313;138291;-71
2022/11/09 05:17:04;;;;;;;41.10;23.70;;;;;;;2.72;97.43;98485.35;102836;1313;138737;-73
2022/11/09 05:19:30;;;;;;;43.40;23.80;;;;;;;2.73;97.28;98484.73;102904;1313;138837;-72
2022/11/09 05:23:57;;;;;;;43.80;25.10;;;;;;;2.72;96.94;98484.11;103069;1298;22499;-71
2022/11/09 05:24:42;;;;;;;40.50;23.70;;;;;;;2.73;96.83;98489.66;103019;1310;137886;-72
2022/11/09 05:27:08;;;;;;;47.90;24.20;;;;;;;2.73;97.13;98493.67;103118;1310;138816;-70
2022/11/09 05:29:35;;;;;;;44.90;24.00;;;;;;;2.74;97.32;98492.65;103206;1310;138240;-71
2022/11/09 05:32:04;;;;;;;39.60;20.00;;;;;;;2.75;96.85;98502.25;102967;1305;138336;-70
2022/11/09 05:34:30;;;;;;;40.40;20.40;;;;;;;2.70;95.95;98507.71;102884;1312;24299;-72
2022/11/09 05:36:56;;;;;;;37.70;19.70;;;;;;;2.60;94.86;98505.02;102947;1313;137704;-73
2022/11/09 05:39:22;;;;;;;30.50;19.10;;;;;;;2.51;94.13;98501.87;102858;1295;137992;-73
2022/11/09 05:41:49;;;;;;;36.40;20.90;;;;;;;2.45;94.54;98501.61;102936;1308;138155;-72
2022/11/09 05:44:55;;;;;;;43.10;23.60;;;;;;;2.43;94.70;98505.85;103104;1310;22517;-72
2022/11/09 05:47:22;;;;;;;42.50;23.30;;;;;;;2.41;95.06;98506.11;103450;1286;138695;-72
2022/11/09 05:49:48;;;;;;;38.60;22.50;;;;;;;2.40;95.06;98509.70;102933;1310;138856;-72
2022/11/09 05:52:14;;;;;;;35.80;21.30;;;;;;;2.40;95.56;98505.66;103029;1305;22701;-72
2022/11/09 05:54:40;;;;;;;47.90;24.20;;;;;;;2.42;96.03;98510.17;103014;1288;137895;-72
2022/11/09 05:57:06;;;;;;;42.50;21.80;;;;;;;2.44;96.24;98512.59;103030;1294;138075;-72
2022/11/09 05:59:33;;;;;;;46.00;22.70;;;;;;;2.47;96.51;98509.20;102908;1294;138389;-72
2022/11/09 06:01:59;;;;;;;51.50;24.50;;;;;;;2.49;96.59;98510.70;102997;1311;139083;-71
2022/11/09 06:04:25;;;;;;;44.20;23.50;;;;;;;2.51;96.48;98508.12;103037;1310;24061;-72
2022/11/09 06:06:51;;;;;;;46.00;23.30;;;;;;;2.53;96.48;98506.65;102957;1310;138154;-71
2022/11/09 06:09:17;;;;;;;40.80;21.90;;;;;;;2.54;96.63;98509.54;104285;1289;139015;-73
2022/11/09 06:11:49;;;;;;;43.30;22.60;;;;;;;2.57;96.64;98513.10;103530;1289;138415;-72
2022/11/09 06:14:15;;;;;;;44.60;21.90;;;;;;;2.58;96.69;98514.42;103993;1298;138174;-72
2022/11/09 06:16:41;;;;;;;39.20;21.30;;;;;;;2.61;96.96;98511.73;103382;1297;138288;-72
2022/11/09 06:19:08;;;;;;;42.30;24.10;;;;;;;2.65;97.28;98508.86;103127;1297;138301;-73
2022/11/09 06:21:36;;;;;;;41.20;22.70;;;;;;;2.71;97.59;98509.24;103347;1311;24854;-72
2022/11/09 06:24:02;;;;;;;41.50;22.50;;;;;;;2.76;97.47;98514.80;103186;1291;137968;-72
2022/11/09 06:26:28;;;;;;;44.70;25.60;;;;;;;2.83;97.63;98516.68;102967;1304;138349;-72
2022/11/09 06:28:58;;;;;;;48.10;25.50;;;;;;;2.90;97.80;98517.45;103156;1310;138267;-72
2022/11/09 06:31:24;;;;;;;43.20;24.80;;;;;;;2.96;97.79;98520.55;103033;1310;138307;-71
2022/11/09 06:33:50;;;;;;;43.10;22.90;;;;;;;3.01;97.69;98520.48;102931;1305;22508;-72
2022/11/09 06:36:17;;;;;;;50.60;25.90;;;;;;;3.06;97.45;98524.94;103259;1313;138081;-71
2022/11/09 06:38:43;;;;;;;51.20;26.30;;;;;;;3.10;97.58;98521.56;103170;1311;139664;-73
2022/11/09 06:41:09;;;;;;;53.30;27.70;;;;;;;3.14;97.71;98519.20;102856;1307;138189;-71
2022/11/09 06:43:36;;;;;;;57.30;27.10;;;;;;;3.19;97.90;98517.09;102879;1310;138253;-72
2022/11/09 06:46:04;;;;;;;72.00;31.50;;;;;;;3.26;98.11;98519.46;103039;1310;25296;-71
2022/11/09 06:48:30;;;;;;;87.00;32.80;;;;;;;3.31;98.15;98518.42;103748;1282;137898;-71
2022/11/09 06:51:00;;;;;;;71.90;30.10;;;;;;;3.37;98.16;98516.98;103362;1310;138080;-72
2022/11/09 06:53:29;;;;;;;56.90;27.50;;;;;;;3.44;98.21;98515.06;103602;1308;138118;-72
2022/11/09 06:56:02;;;;;;;51.00;25.20;;;;;;;3.51;98.53;98512.73;103011;1311;138247;-71
2022/11/09 06:58:29;;;;;;;49.20;26.40;;;;;;;3.57;98.61;98513.77;102916;1312;22587;-72
2022/11/09 07:00:56;;;;;;;34.40;18.10;;;;;;;3.63;98.35;98513.70;103058;1312;137783;-70
2022/11/09 07:03:23;;;;;;;70.60;29.30;;;;;;;3.77;99.76;98515.77;103719;1295;137915;-73
2022/11/09 07:05:52;;;;;;;44.20;24.70;;;;;;;3.94;99.75;98517.40;103403;1307;138024;-72
2022/11/09 07:08:18;;;;;;;50.10;25.40;;;;;;;4.00;98.44;98515.47;103396;1305;138707;-72
2022/11/09 07:10:45;;;;;;;52.10;24.50;;;;;;;4.06;98.02;98515.70;103182;1310;138375;-72
2022/11/09 07:13:11;;;;;;;50.70;25.30;;;;;;;4.12;98.10;98513.73;102865;1298;139001;-72
2022/11/09 07:15:38;;;;;;;50.40;27.00;;;;;;;4.18;98.14;98514.66;102975;1311;22508;-72
2022/11/09 07:18:09;;;;;;;54.40;27.70;;;;;;;4.26;98.23;98517.84;102864;1310;138015;-72
2022/11/09 07:20:36;;;;;;;51.60;27.80;;;;;;;4.38;99.08;98521.06;102968;1310;138180;-71
2022/11/09 07:23:02;;;;;;;50.70;27.20;;;;;;;4.54;99.20;98520.98;103592;1297;138357;-72
2022/11/09 07:25:29;;;;;;;49.50;27.20;;;;;;;4.64;98.51;98517.46;103110;1311;138278;-72
2022/11/09 07:28:02;;;;;;;50.00;26.30;;;;;;;4.74;98.49;98512.67;103580;1310;22293;-72
2022/11/09 07:30:29;;;;;;;41.70;26.10;;;;;;;4.85;98.42;98511.77;103381;1296;137996;-72
2022/11/09 07:32:58;;;;;;;47.80;25.80;;;;;;;4.94;98.56;98511.06;103111;1302;138216;-72
2022/11/09 07:35:26;;;;;;;44.60;25.90;;;;;;;5.05;98.64;98513.34;102950;1303;138106;-72
2022/11/09 07:37:52;;;;;;;42.30;25.50;;;;;;;5.15;98.52;98516.74;103157;1306;138159;-72
2022/11/09 07:40:19;;;;;;;45.60;25.10;;;;;;;5.23;98.19;98514.04;103080;1313;22510;-72
2022/11/09 07:42:46;;;;;;;47.20;27.00;;;;;;;5.30;97.87;98515.20;103272;1305;137927;-72
2022/11/09 07:45:12;;;;;;;51.60;27.10;;;;;;;5.38;97.58;98507.70;103117;1304;138134;-72
2022/11/09 07:47:38;;;;;;;55.00;28.80;;;;;;;5.45;97.20;98511.56;103200;1296;138060;-72
2022/11/09 07:50:05;;;;;;;51.60;26.20;;;;;;;5.52;97.01;98515.44;103250;1310;138215;-72
2022/11/09 07:52:32;;;;;;;51.90;29.80;;;;;;;5.60;96.80;98516.55;103179;1300;24324;-72
2022/11/09 07:54:58;;;;;;;51.00;25.90;;;;;;;5.65;96.03;98515.64;103015;1310;137730;-72
2022/11/09 07:57:24;;;;;;;53.50;27.70;;;;;;;5.67;95.47;98503.27;103062;1303;138332;-73
2022/11/09 07:59:52;;;;;;;60.40;30.50;;;;;;;5.74;95.80;98500.23;103025;1312;139006;-72
2022/11/09 08:02:18;;;;;;;58.30;29.70;;;;;;;5.81;95.74;98500.49;103049;1313;138555;-72
2022/11/09 08:04:45;;;;;;;63.60;31.80;;;;;;;5.87;95.56;98501.37;103028;1302;138291;-72
2022/11/09 08:07:11;;;;;;;64.80;32.30;;;;;;;5.97;96.13;98499.92;103528;1304;138288;-72
2022/11/09 08:09:37;;;;;;;58.80;29.30;;;;;;;6.07;96.19;98496.30;103616;1310;24267;-72
2022/11/09 08:12:03;;;;;;;51.10;27.90;;;;;;;6.17;96.01;98502.66;103139;1310;138372;-72
2022/11/09 08:14:29;;;;;;;57.10;31.60;;;;;;;6.27;96.24;98494.88;103747;1310;138212;-73
2022/11/09 08:16:56;;;;;;;56.40;30.30;;;;;;;6.37;96.10;98493.36;103185;1312;138560;-73
2022/11/09 08:19:22;;;;;;;57.40;30.40;;;;;;;6.49;96.29;98496.41;103088;1313;138225;-72
2022/11/09 08:21:48;;;;;;;57.60;29.70;;;;;;;6.60;95.89;98493.05;103177;1312;22486;-72
2022/11/09 08:24:14;;;;;;;55.90;25.70;;;;;;;6.70;95.68;98491.45;103044;1296;138410;-72
2022/11/09 08:26:41;;;;;;;50.50;27.50;;;;;;;6.79;95.24;98493.09;104050;1298;138689;-72
2022/11/09 08:29:07;;;;;;;48.40;27.60;;;;;;;6.87;95.07;98493.95;103290;1309;138308;-72
2022/11/09 08:31:33;;;;;;;51.00;27.60;;;;;;;6.94;94.76;98491.73;103084;1282;140659;-73
2022/11/09 08:33:59;;;;;;;50.40;27.30;;;;;;;7.01;94.47;98489.05;103124;1310;22914;-72
2022/11/09 08:36:28;;;;;;;57.20;28.60;;;;;;;7.10;94.66;98487.17;103022;1295;137965;-72
2022/11/09 08:38:54;;;;;;;59.70;28.90;;;;;;;7.19;94.42;98491.34;103006;1295;138186;-74
2022/11/09 08:41:20;;;;;;;59.20;28.70;;;;;;;7.28;94.40;98487.80;102953;1313;138489;-73
2022/11/09 08:43:47;;;;;;;54.50;29.80;;;;;;;7.39;94.51;98486.89;102950;1311;138698;-72
2022/11/09 08:46:13;;;;;;;52.90;30.00;;;;;;;7.50;94.30;98487.96;103110;1310;22470;-74
2022/11/09 08:48:39;;;;;;;49.00;26.90;;;;;;;7.59;93.90;98483.36;103121;1310;138285;-72
2022/11/09 08:51:05;;;;;;;51.00;27.30;;;;;;;7.70;93.54;98479.90;103124;1309;25362;-73
2022/11/09 08:53:31;;;;;;;55.90;28.40;;;;;;;7.80;93.14;98482.54;103109;1289;138452;-73
2022/11/09 08:55:58;;;;;;;50.70;27.80;;;;;;;7.91;93.04;98478.88;103318;1288;138580;-74
2022/11/09 08:58:24;;;;;;;50.40;26.80;;;;;;;8.02;92.96;98480.77;103836;1311;22478;-72
2022/11/09 09:00:51;;;;;;;47.90;26.00;;;;;;;8.12;92.78;98478.23;102992;1288;138019;-73
2022/11/09 09:03:17;;;;;;;51.80;27.10;;;;;;;8.24;92.56;98474.74;102932;1311;138331;-73
2022/11/09 09:05:43;;;;;;;43.20;24.80;;;;;;;8.34;92.41;98476.31;102843;1310;138651;-72
2022/11/09 09:08:11;;;;;;;42.10;23.50;;;;;;;8.42;91.68;98475.64;102845;1310;138344;-74
2022/11/09 09:10:39;;;;;;;44.10;24.00;;;;;;;8.50;91.70;98479.83;103025;1310;24319;-72
2022/11/09 09:13:05;;;;;;;41.70;24.10;;;;;;;8.60;91.53;98473.18;102982;1310;22518;-73
2022/11/09 09:15:32;;;;;;;42.60;23.00;;;;;;;8.69;91.04;98476.46;102939;1288;138383;-73
2022/11/09 09:18:00;;;;;;;42.00;25.70;;;;;;;8.77;90.69;98478.92;102815;1311;138328;-72
2022/11/09 09:20:27;;;;;;;47.90;28.00;;;;;;;8.84;90.42;98477.06;102836;1305;138673;-74
2022/11/09 09:22:53;;;;;;;51.00;26.80;;;;;;;8.92;90.04;98473.39;103003;1310;138951;-74
2022/11/09 09:25:19;;;;;;;47.00;27.20;;;;;;;9.03;89.69;98475.34;103281;1313;22881;-73
2022/11/09 09:27:46;;;;;;;42.10;24.90;;;;;;;9.13;89.38;98474.94;102897;1288;138990;-73
2022/11/09 09:30:12;;;;;;;38.70;22.30;;;;;;;9.22;88.75;98476.73;102978;1305;138450;-72
2022/11/09 09:32:39;;;;;;;42.70;21.70;;;;;;;9.30;88.13;98474.37;103113;1310;138216;-75
2022/11/09 09:35:05;;;;;;;35.70;19.10;;;;;;;9.39;87.15;98471.83;103345;1310;138712;-73
2022/11/09 09:37:31;;;;;;;32.70;18.30;;;;;;;9.48;85.74;98469.06;103008;1305;22468;-73
2022/11/09 09:39:58;;;;;;;33.20;18.30;;;;;;;9.58;85.18;98465.53;103210;1313;137916;-73
2022/11/09 09:42:41;;;;;;;37.50;19.70;;;;;;;9.70;84.98;98465.61;103072;1309;138384;-73
2022/11/09 09:45:25;;;;;;;32.90;18.40;;;;;;;9.81;84.34;98464.29;103026;1294;138333;-73
2022/11/09 09:47:51;;;;;;;34.60;18.50;;;;;;;9.92;83.72;98467.76;103590;1298;138333;-72
2022/11/09 09:50:21;;;;;;;35.50;19.50;;;;;;;10.00;83.70;98470.23;102827;1307;138499;-73
2022/11/09 09:53:01;;;;;;;39.60;19.10;;;;;;;10.10;83.24;98466.50;102840;1313;138629;-73
2022/11/09 09:55:52;;;;;;;38.70;19.60;;;;;;;10.19;82.91;98463.90;103054;1301;22885;-73
2022/11/09 09:58:31;;;;;;;41.60;20.50;;;;;;;10.26;82.27;98463.11;102888;1310;23878;-74
2022/11/09 10:01:15;;;;;;;42.60;21.10;;;;;;;10.33;82.16;98463.65;102898;1310;138011;-73
2022/11/09 10:03:41;;;;;;;39.30;20.30;;;;;;;10.39;81.81;98465.72;102898;1310;138398;-75
2022/11/09 10:06:29;;;;;;;47.70;21.80;;;;;;;10.44;81.52;98461.73;102755;1298;138659;-73
2022/11/09 10:09:04;;;;;;;36.50;21.60;;;;;;;10.50;81.25;98464.13;102906;1310;138436;-73
2022/11/09 10:12:16;;;;;;;33.20;19.50;;;;;;;10.55;80.88;98464.81;102795;1312;138654;-75
2022/11/09 10:15:00;;;;;;;40.90;20.70;;;;;;;10.61;81.06;98460.30;102844;1313;138429;-72
2022/11/09 10:17:27;;;;;;;38.50;22.10;;;;;;;10.67;80.39;98454.90;102890;1310;138400;-73
2022/11/09 10:20:07;;;;;;;43.40;21.70;;;;;;;10.71;80.76;98449.59;102974;1305;138730;-73
2022/11/09 10:22:36;;;;;;;38.00;21.10;;;;;;;10.76;79.91;98445.30;103139;1310;25363;-73
2022/11/09 10:25:08;;;;;;;;;;;;;;;10.80;80.10;98443.69;102898;1310;138618;-73
2022/11/09 10:27:39;;;;;;;32.50;19.20;;;;;;;10.80;78.79;98433.12;103056;1311;124608;-74
2022/11/09 10:30:15;;;;;;;42.50;20.30;;;;;;;10.79;78.00;98434.89;102943;1304;138648;-73
2022/11/09 10:32:45;;;;;;;40.70;20.60;;;;;;;10.80;77.47;98437.80;102894;1313;138386;-72
2022/11/09 10:35:19;;;;;;;38.60;19.70;;;;;;;10.81;77.60;98437.38;102938;1313;138576;-73
2022/11/09 10:37:49;;;;;;;37.20;19.90;;;;;;;10.84;77.98;98440.81;102862;1310;23349;-75
2022/11/09 10:40:24;;;;;;;35.30;19.00;;;;;;;10.90;78.15;98444.45;103077;1292;22478;-73
2022/11/09 10:43:12;;;;;;;33.60;19.40;;;;;;;10.94;77.38;98444.02;102975;1310;25307;-76
2022/11/09 10:46:03;;;;;;;37.40;19.50;;;;;;;10.99;77.20;98440.95;102754;1289;139206;-74
2022/11/09 10:48:48;;;;;;;31.70;17.00;;;;;;;11.06;76.92;98441.92;102623;1312;138661;-74
2022/11/09 10:51:39;;;;;;;26.70;16.40;;;;;;;11.11;76.84;98438.02;102830;1313;138855;-73
2022/11/09 10:54:37;;;;;;;28.20;16.90;;;;;;;11.16;75.87;98436.02;102924;1313;139477;-73
2022/11/09 10:57:24;;;;;;;29.80;16.50;;;;;;;11.18;75.58;98437.10;102862;1313;138440;-74
2022/11/09 11:00:18;;;;;;;29.90;15.80;;;;;;;11.24;75.85;98433.64;102963;1308;138858;-72
2022/11/09 11:03:32;;;;;;;30.40;16.90;;;;;;;11.30;75.00;98437.32;103236;1310;138980;-72
2022/11/09 11:06:19;;;;;;;34.00;16.40;;;;;;;11.37;74.43;98433.01;103537;1310;138458;-73
2022/11/09 11:09:04;;;;;;;28.90;15.90;;;;;;;11.45;74.71;98429.04;103340;1310;138539;-73
2022/11/09 11:12:14;;;;;;;24.10;15.20;;;;;;;11.53;74.57;98426.62;103385;1313;138751;-73
2022/11/09 11:15:00;;;;;;;26.10;15.40;;;;;;;11.64;74.62;98421.92;103159;1313;138477;-73
2022/11/09 11:17:46;;;;;;;29.90;15.40;;;;;;;11.72;74.45;98421.81;103312;1311;139153;-74
2022/11/09 11:20:36;;;;;;;28.00;15.30;;;;;;;11.81;74.20;98418.27;103420;1288;139336;-73